createdAt,value
2022-09-09T00:02:26.234Z,9.50
2022-09-09T00:05:03.719Z,9.77
2022-09-09T00:07:42.525Z,10.57
2022-09-09T00:10:18.442Z,10.75
2022-09-09T00:13:06.653Z,11.60
2022-09-09T00:15:48.678Z,11.37
2022-09-09T00:18:43.048Z,12.27
2022-09-09T00:21:19.746Z,11.57
2022-09-09T00:23:49.592Z,13.00
2022-09-09T00:26:22.573Z,11.88
2022-09-09T00:29:15.237Z,10.52
2022-09-09T00:31:45.108Z,11.63
2022-09-09T00:34:22.319Z,10.43
2022-09-09T00:36:55.458Z,11.00
2022-09-09T00:39:46.824Z,10.43
2022-09-09T00:42:20.912Z,10.20
2022-09-09T00:44:59.660Z,10.02
2022-09-09T00:47:38.580Z,9.90
2022-09-09T00:50:08.444Z,9.55
2022-09-09T00:52:47.228Z,10.98
2022-09-09T00:55:32.333Z,10.93
2022-09-09T00:58:02.061Z,10.93
2022-09-09T01:00:36.171Z,10.77
2022-09-09T01:03:26.973Z,11.90
2022-09-09T01:05:59.954Z,11.98
2022-09-09T01:08:48.317Z,11.73
2022-09-09T01:11:31.741Z,12.57
2022-09-09T01:14:20.582Z,16.48
2022-09-09T01:16:50.289Z,12.38
2022-09-09T01:19:23.633Z,12.10
2022-09-09T01:21:59.949Z,11.50
2022-09-09T01:24:29.751Z,12.45
2022-09-09T01:27:00.827Z,11.30
2022-09-09T01:29:30.686Z,11.98
2022-09-09T01:32:02.120Z,12.02
2022-09-09T01:34:33.162Z,11.88
2022-09-09T01:37:12.996Z,12.05
2022-09-09T01:39:45.895Z,11.63
2022-09-09T01:42:17.699Z,11.35
2022-09-09T01:44:47.402Z,10.93
2022-09-09T01:47:18.589Z,11.15
2022-09-09T01:49:48.191Z,11.32
2022-09-09T01:52:17.832Z,11.27
2022-09-09T01:54:47.619Z,10.63
2022-09-09T01:57:35.031Z,10.85
2022-09-09T02:00:11.260Z,11.38
2022-09-09T02:02:50.296Z,11.95
2022-09-09T02:05:38.601Z,10.68
2022-09-09T02:08:12.139Z,12.25
2022-09-09T02:10:53.052Z,11.32
2022-09-09T02:13:23.424Z,10.82
2022-09-09T02:15:56.872Z,11.27
2022-09-09T02:18:38.443Z,11.35
2022-09-09T02:21:08.276Z,10.85
2022-09-09T02:23:37.761Z,12.48
2022-09-09T02:26:07.456Z,12.73
2022-09-09T02:28:37.224Z,11.95
2022-09-09T02:31:07.134Z,13.20
2022-09-09T02:33:38.857Z,13.27
2022-09-09T02:36:09.056Z,12.95
2022-09-09T02:38:39.808Z,12.90
2022-09-09T02:41:09.532Z,13.02
2022-09-09T02:43:39.640Z,12.52
2022-09-09T02:46:18.412Z,12.95
2022-09-09T02:49:04.728Z,13.95
2022-09-09T02:51:44.143Z,14.50
2022-09-09T02:54:15.901Z,14.25
2022-09-09T02:56:46.043Z,13.80
2022-09-09T02:59:15.726Z,14.65
2022-09-09T03:01:46.511Z,14.30
2022-09-09T03:04:16.546Z,13.35
2022-09-09T03:06:47.347Z,14.85
2022-09-09T03:09:17.093Z,13.70
2022-09-09T03:11:46.829Z,14.07
2022-09-09T03:14:16.791Z,14.63
2022-09-09T03:16:46.677Z,13.68
2022-09-09T03:19:16.428Z,14.05
2022-09-09T03:21:46.254Z,14.60
2022-09-09T03:24:16.731Z,13.88
2022-09-09T03:26:49.519Z,14.57
2022-09-09T03:29:20.465Z,12.90
2022-09-09T03:31:51.385Z,13.13
2022-09-09T03:34:21.239Z,14.57
2022-09-09T03:36:51.704Z,13.90
2022-09-09T03:39:21.765Z,12.13
2022-09-09T03:41:51.836Z,12.60
2022-09-09T03:44:22.175Z,13.25
2022-09-09T03:46:55.023Z,13.07
2022-09-09T03:49:25.194Z,13.68
2022-09-09T03:51:55.355Z,14.40
2022-09-09T03:54:25.359Z,14.10
2022-09-09T03:56:55.259Z,13.48
2022-09-09T03:59:25.332Z,13.35
2022-09-09T04:01:55.758Z,12.68
2022-09-09T04:04:25.448Z,13.52
2022-09-09T04:06:55.824Z,12.10
2022-09-09T04:09:25.630Z,12.82
2022-09-09T04:11:55.917Z,11.77
2022-09-09T04:14:26.096Z,13.82
2022-09-09T04:16:56.228Z,13.73
2022-09-09T04:19:26.036Z,17.20
2022-09-09T04:21:56.216Z,18.65
2022-09-09T04:24:27.379Z,12.88
2022-09-09T04:26:57.865Z,14.25
2022-09-09T04:29:27.543Z,14.40
2022-09-09T04:31:58.497Z,13.35
2022-09-09T04:34:28.278Z,13.63
2022-09-09T04:36:59.244Z,11.57
2022-09-09T04:39:29.139Z,11.10
2022-09-09T04:41:58.863Z,11.18
2022-09-09T04:44:28.790Z,12.10
2022-09-09T04:46:58.449Z,12.90
2022-09-09T04:49:28.341Z,12.85
2022-09-09T04:51:58.548Z,12.10
2022-09-09T04:54:28.528Z,11.85
2022-09-09T04:56:58.363Z,10.80
2022-09-09T04:59:28.057Z,11.23
2022-09-09T05:01:58.347Z,11.27
2022-09-09T05:04:28.213Z,11.48
2022-09-09T05:06:57.896Z,10.63
2022-09-09T05:09:27.606Z,9.82
2022-09-09T05:11:58.593Z,10.05
2022-09-09T05:14:29.044Z,11.70
2022-09-09T05:17:00.313Z,10.90
2022-09-09T05:19:29.981Z,9.25
2022-09-09T05:21:59.562Z,9.52
2022-09-09T05:24:29.143Z,10.38
2022-09-09T05:27:00.488Z,9.18
2022-09-09T05:29:30.238Z,9.45
2022-09-09T05:32:00.857Z,12.32
2022-09-09T05:34:31.511Z,10.30
2022-09-09T05:37:01.148Z,11.90
2022-09-09T05:39:31.812Z,11.30
2022-09-09T05:42:01.541Z,11.50
2022-09-09T05:44:31.667Z,12.50
2022-09-09T05:47:01.452Z,12.93
2022-09-09T05:49:31.258Z,12.80
2022-09-09T05:52:01.032Z,14.38
2022-09-09T05:54:31.194Z,15.15
2022-09-09T05:57:01.579Z,16.42
2022-09-09T05:59:31.286Z,16.88
2022-09-09T06:02:01.676Z,15.43
2022-09-09T06:04:32.778Z,15.52
2022-09-09T06:07:02.584Z,16.15
2022-09-09T06:09:33.076Z,15.73
2022-09-09T06:12:02.902Z,16.35
2022-09-09T06:14:32.632Z,17.92
2022-09-09T06:17:02.626Z,15.90
2022-09-09T06:19:33.355Z,17.60
2022-09-09T06:22:03.082Z,16.50
2022-09-09T06:24:32.830Z,15.88
2022-09-09T06:27:05.537Z,17.13
2022-09-09T06:29:35.245Z,17.27
2022-09-09T06:32:06.958Z,16.88
2022-09-09T06:34:37.964Z,17.90
2022-09-09T06:37:08.925Z,18.65
2022-09-09T06:39:38.594Z,18.65
2022-09-09T06:42:09.343Z,17.60
2022-09-09T06:44:43.434Z,18.83
2022-09-09T06:47:13.694Z,17.38
2022-09-09T06:49:46.560Z,17.52
2022-09-09T06:52:20.832Z,18.00
2022-09-09T06:54:50.546Z,17.77
2022-09-09T06:57:36.336Z,17.67
2022-09-09T07:00:07.109Z,18.05
2022-09-09T07:02:41.276Z,18.10
2022-09-09T07:05:11.080Z,17.20
2022-09-09T07:07:40.715Z,17.92
2022-09-09T07:10:10.489Z,31.02
2022-09-09T07:12:40.203Z,18.85
2022-09-09T07:15:10.228Z,18.23
2022-09-09T07:17:40.178Z,18.55
2022-09-09T07:20:10.419Z,17.92
2022-09-09T07:22:40.257Z,19.15
2022-09-09T07:25:10.476Z,20.48
2022-09-09T07:27:40.276Z,21.20
2022-09-09T07:30:10.338Z,22.90
2022-09-09T07:32:40.981Z,24.35
2022-09-09T07:35:11.012Z,25.00
2022-09-09T07:37:41.197Z,22.50
2022-09-09T07:40:11.402Z,25.60
2022-09-09T07:42:41.200Z,25.23
2022-09-09T07:45:11.135Z,26.73
2022-09-09T07:47:41.116Z,33.35
2022-09-09T07:50:11.764Z,26.85
2022-09-09T07:52:41.701Z,24.40
2022-09-09T07:55:11.689Z,21.45
2022-09-09T07:57:41.607Z,19.17
2022-09-09T08:00:12.773Z,18.48
2022-09-09T08:02:42.458Z,18.25
2022-09-09T08:05:12.331Z,17.13
2022-09-09T08:07:42.177Z,11.57
2022-09-09T08:10:11.942Z,10.35
2022-09-09T08:12:47.723Z,6.53
2022-09-09T08:15:25.996Z,5.75
2022-09-09T08:17:55.848Z,5.70
2022-09-09T08:20:25.767Z,5.15
2022-09-09T08:22:55.401Z,7.65
2022-09-09T08:25:25.125Z,8.50
2022-09-09T08:27:59.305Z,8.10
2022-09-09T08:30:29.708Z,7.00
2022-09-09T08:32:59.772Z,6.72
2022-09-09T08:35:29.971Z,7.35
2022-09-09T08:37:59.668Z,7.07
2022-09-09T08:40:30.575Z,6.07
2022-09-09T08:43:00.255Z,6.00
2022-09-09T08:45:33.083Z,6.40
2022-09-09T08:48:18.871Z,6.30
2022-09-09T08:50:51.003Z,5.63
2022-09-09T08:53:24.297Z,5.05
2022-09-09T08:56:17.674Z,5.75
2022-09-09T08:58:48.070Z,5.68
2022-09-09T09:01:27.209Z,6.05
2022-09-09T09:06:41.874Z,5.97
2022-09-09T09:09:27.134Z,6.82
2022-09-09T09:12:03.043Z,6.47
2022-09-09T09:14:36.440Z,6.55
2022-09-09T09:17:17.486Z,6.78
2022-09-09T09:19:48.945Z,6.32
2022-09-09T09:22:29.063Z,6.50
2022-09-09T09:25:14.362Z,6.82
2022-09-09T09:28:08.183Z,5.85
2022-09-09T09:30:44.632Z,5.65
2022-09-09T09:33:33.102Z,5.70
2022-09-09T09:36:02.790Z,6.00
2022-09-09T09:41:32.986Z,6.25
2022-09-09T09:44:06.880Z,6.53
2022-09-09T09:46:36.585Z,6.07
2022-09-09T09:49:08.083Z,7.22
2022-09-09T09:51:38.887Z,7.93
2022-09-09T09:54:18.527Z,7.70
2022-09-09T09:56:48.471Z,8.23
2022-09-09T09:59:40.816Z,8.25
2022-09-09T10:02:17.585Z,9.05
2022-09-09T10:04:50.130Z,9.82
2022-09-09T10:07:22.336Z,9.85
2022-09-09T10:09:56.654Z,10.10
2022-09-09T10:12:32.534Z,10.88
2022-09-09T10:15:08.683Z,19.65
2022-09-09T10:17:57.357Z,7.85
2022-09-09T10:20:46.830Z,12.90
2022-09-09T10:23:20.737Z,12.32
2022-09-09T10:25:58.714Z,11.90
2022-09-09T10:28:37.888Z,11.18
2022-09-09T10:33:40.796Z,11.98
2022-09-09T10:36:17.524Z,10.93
2022-09-09T10:38:50.385Z,11.32
2022-09-09T10:41:32.419Z,11.18
2022-09-09T10:44:11.373Z,11.13
2022-09-09T10:46:46.780Z,12.45
2022-09-09T10:49:23.573Z,13.32
2022-09-09T10:51:53.456Z,14.63
2022-09-09T10:54:37.304Z,15.65
2022-09-09T10:57:36.808Z,17.77
2022-09-09T11:00:08.261Z,21.50
2022-09-09T11:02:38.299Z,21.15
2022-09-09T11:05:09.776Z,19.50
2022-09-09T11:07:55.190Z,19.67
2022-09-09T11:10:31.130Z,19.42
2022-09-09T11:13:07.938Z,18.23
2022-09-09T11:15:44.428Z,18.75
2022-09-09T11:18:15.716Z,17.10
2022-09-09T11:20:45.413Z,17.58
2022-09-09T11:23:25.940Z,17.17
2022-09-09T11:25:58.884Z,17.25
2022-09-09T11:28:47.138Z,17.33
2022-09-09T11:31:35.495Z,16.70
2022-09-09T11:34:10.787Z,17.80
2022-09-09T11:36:49.423Z,16.42
2022-09-09T11:39:22.571Z,16.80
2022-09-09T11:41:52.561Z,16.88
2022-09-09T11:44:23.878Z,14.82
2022-09-09T11:46:56.672Z,15.13
2022-09-09T11:49:33.746Z,15.15
2022-09-09T11:52:03.548Z,17.15
2022-09-09T11:54:37.485Z,15.93
2022-09-09T11:57:27.329Z,18.38
2022-09-09T11:59:57.493Z,18.65
2022-09-09T12:02:32.541Z,17.27
2022-09-09T12:05:07.936Z,16.63
2022-09-09T12:07:45.040Z,17.30
2022-09-09T12:10:34.918Z,34.78
2022-09-09T12:13:27.224Z,30.15
2022-09-09T12:15:57.849Z,20.70
2022-09-09T12:18:30.690Z,20.48
2022-09-09T12:21:06.837Z,20.58
2022-09-09T12:23:39.881Z,23.65
2022-09-09T12:26:12.611Z,27.90
2022-09-09T12:28:43.232Z,29.17
2022-09-09T12:31:24.594Z,34.88
2022-09-09T12:33:55.392Z,32.15
2022-09-09T12:36:33.915Z,31.08
2022-09-09T12:39:13.255Z,30.30
2022-09-09T12:41:42.970Z,27.98
2022-09-09T12:44:13.252Z,27.02
2022-09-09T12:46:49.384Z,28.73
2022-09-09T12:49:38.828Z,28.85
2022-09-09T12:52:32.578Z,28.75
2022-09-09T12:55:03.017Z,25.38
2022-09-09T12:57:35.588Z,24.17
2022-09-09T13:00:11.529Z,23.60
2022-09-09T13:02:48.767Z,24.30
2022-09-09T13:05:25.993Z,23.98
2022-09-09T13:07:56.149Z,23.58
2022-09-09T13:10:36.927Z,21.85
2022-09-09T13:13:19.603Z,21.80
2022-09-09T13:15:53.475Z,20.70
2022-09-09T13:18:25.801Z,21.42
2022-09-09T13:20:55.540Z,20.45
2022-09-09T13:23:25.678Z,20.88
2022-09-09T13:26:06.877Z,20.80
2022-09-09T13:28:37.752Z,21.30
2022-09-09T13:31:09.414Z,21.33
2022-09-09T13:33:42.427Z,21.65
2022-09-09T13:36:13.283Z,20.45
2022-09-09T13:38:44.929Z,20.80
2022-09-09T13:41:15.148Z,22.95
2022-09-09T13:43:49.762Z,21.90
2022-09-09T13:46:37.971Z,21.95
2022-09-09T13:49:14.481Z,22.73
2022-09-09T13:51:45.106Z,62.83
2022-09-09T13:54:15.574Z,35.08
2022-09-09T13:56:45.992Z,24.38
2022-09-09T13:59:17.034Z,20.33
2022-09-09T14:01:47.335Z,21.02
2022-09-09T14:04:18.358Z,21.35
2022-09-09T14:06:48.420Z,23.60
2022-09-09T14:09:18.900Z,23.98
2022-09-09T14:11:49.152Z,25.70
2022-09-09T14:14:19.618Z,25.25
2022-09-09T14:16:50.142Z,24.30
2022-09-09T14:19:20.904Z,24.33
2022-09-09T14:21:51.237Z,23.05
2022-09-09T14:24:24.596Z,23.63
2022-09-09T14:26:54.558Z,23.98
2022-09-09T14:29:24.741Z,24.27
2022-09-09T14:31:54.895Z,24.83
2022-09-09T14:34:25.216Z,23.35
2022-09-09T14:36:55.348Z,25.17
2022-09-09T14:39:25.513Z,24.27
2022-09-09T14:41:55.662Z,25.08
2022-09-09T14:44:25.889Z,24.20
2022-09-09T14:46:56.801Z,25.50
2022-09-09T14:49:26.705Z,24.27
2022-09-09T14:51:56.861Z,22.85
2022-09-09T14:54:26.879Z,26.27
2022-09-09T14:56:57.024Z,26.50
2022-09-09T14:59:26.753Z,23.05
2022-09-09T15:01:56.780Z,20.63
2022-09-09T15:04:26.855Z,18.90
2022-09-09T15:06:56.673Z,18.55
2022-09-09T15:09:26.630Z,18.00
2022-09-09T15:11:56.402Z,19.50
2022-09-09T15:14:26.261Z,19.08
2022-09-09T15:16:56.048Z,19.98
2022-09-09T15:19:25.864Z,20.02
2022-09-09T15:21:56.284Z,19.98
2022-09-09T15:24:26.102Z,18.10
2022-09-09T15:26:56.728Z,15.07
2022-09-09T15:29:26.813Z,10.68
2022-09-09T15:31:59.885Z,9.23
2022-09-09T15:34:30.521Z,9.88
2022-09-09T15:37:02.222Z,8.23
2022-09-09T15:39:35.612Z,5.05
2022-09-09T15:42:09.627Z,3.22
2022-09-09T15:44:45.016Z,2.65
2022-09-09T15:47:18.876Z,2.10
2022-09-09T15:49:48.872Z,1.80
2022-09-09T15:52:18.554Z,1.90
2022-09-09T15:54:48.266Z,1.55
2022-09-09T15:57:18.182Z,1.33
2022-09-09T15:59:48.204Z,1.50
2022-09-09T16:02:18.526Z,1.20
2022-09-09T16:04:48.350Z,1.52
2022-09-09T16:07:18.142Z,1.40
2022-09-09T16:09:49.158Z,1.50
2022-09-09T16:12:19.352Z,1.60
2022-09-09T16:14:49.063Z,1.70
2022-09-09T16:17:19.315Z,1.73
2022-09-09T16:19:48.986Z,2.28
2022-09-09T16:22:20.511Z,1.83
2022-09-09T16:24:50.332Z,2.10
2022-09-09T16:27:20.635Z,2.38
2022-09-09T16:29:51.794Z,2.13
2022-09-09T16:32:22.910Z,1.90
2022-09-09T16:34:52.784Z,1.95
2022-09-09T16:37:22.683Z,3.13
2022-09-09T16:39:52.915Z,1.90
2022-09-09T16:42:23.030Z,2.28
2022-09-09T16:44:52.909Z,2.40
2022-09-09T16:47:23.378Z,2.72
2022-09-09T16:49:53.108Z,2.25
2022-09-09T16:52:22.867Z,2.20
2022-09-09T16:54:52.599Z,1.60
2022-09-09T16:57:22.273Z,1.73
2022-09-09T16:59:52.641Z,1.70
2022-09-09T17:02:22.529Z,2.15
2022-09-09T17:04:52.332Z,2.08
2022-09-09T17:07:22.234Z,2.17
2022-09-09T17:09:52.045Z,2.97
2022-09-09T17:12:21.913Z,3.80
2022-09-09T17:14:51.789Z,3.45
2022-09-09T17:17:31.617Z,3.67
2022-09-09T17:20:01.818Z,2.95
2022-09-09T17:22:31.543Z,3.40
2022-09-09T17:25:01.179Z,2.53
2022-09-09T17:27:33.764Z,2.50
2022-09-09T17:30:04.948Z,3.50
2022-09-09T17:32:34.912Z,2.90
2022-09-09T17:35:04.534Z,4.32
2022-09-09T17:37:34.547Z,3.83
2022-09-09T17:40:04.540Z,3.60
2022-09-09T17:42:35.178Z,3.78
2022-09-09T17:45:04.917Z,4.32
2022-09-09T17:47:34.559Z,3.58
2022-09-09T17:50:04.407Z,3.25
2022-09-09T17:52:34.023Z,5.07
2022-09-09T17:55:03.673Z,4.60
2022-09-09T17:57:33.871Z,4.80
2022-09-09T18:00:03.516Z,5.35
2022-09-09T18:02:33.201Z,5.68
2022-09-09T18:05:03.698Z,5.40
2022-09-09T18:07:33.349Z,4.32
2022-09-09T18:10:03.090Z,4.35
2022-09-09T18:12:33.334Z,4.38
2022-09-09T18:15:04.203Z,4.40
2022-09-09T18:17:34.162Z,4.00
2022-09-09T18:20:04.206Z,4.18
2022-09-09T18:22:33.913Z,3.10
2022-09-09T18:25:04.034Z,3.83
2022-09-09T18:27:33.701Z,3.13
2022-09-09T18:30:03.458Z,3.25
2022-09-09T18:32:33.703Z,3.53
2022-09-09T18:35:03.744Z,3.47
2022-09-09T18:37:35.560Z,2.85
2022-09-09T18:40:05.616Z,3.15
2022-09-09T18:42:35.600Z,3.50
2022-09-09T18:45:05.526Z,4.45
2022-09-09T18:47:36.320Z,3.45
2022-09-09T18:50:06.365Z,4.22
2022-09-09T18:52:36.485Z,3.28
2022-09-09T18:55:06.167Z,3.90
2022-09-09T18:57:36.583Z,3.63
2022-09-09T19:00:06.936Z,3.50
2022-09-09T19:02:36.806Z,4.28
2022-09-09T19:05:06.713Z,4.40
2022-09-09T19:07:36.498Z,4.05
2022-09-09T19:10:06.103Z,3.80
2022-09-09T19:12:35.737Z,4.90
2022-09-09T19:15:05.729Z,5.13
2022-09-09T19:17:37.174Z,4.50
2022-09-09T19:20:10.258Z,4.88
2022-09-09T19:22:39.897Z,5.07
2022-09-09T19:25:09.780Z,5.50
2022-09-09T19:27:39.494Z,8.02
2022-09-09T19:30:09.538Z,7.10
2022-09-09T19:32:54.605Z,6.05
2022-09-09T19:35:25.075Z,5.97
2022-09-09T19:37:55.097Z,7.40
2022-09-09T19:40:25.178Z,5.57
2022-09-09T19:42:56.634Z,5.45
2022-09-09T19:45:26.601Z,5.85
2022-09-09T19:47:57.625Z,5.00
2022-09-09T19:50:27.388Z,5.25
2022-09-09T19:52:57.938Z,6.43
2022-09-09T19:55:29.009Z,5.95
2022-09-09T19:57:58.965Z,4.85
2022-09-09T20:00:28.870Z,5.28
2022-09-09T20:03:18.074Z,5.35
2022-09-09T20:05:50.675Z,5.55
2022-09-09T20:08:20.394Z,5.85
2022-09-09T20:10:54.200Z,5.22
2022-09-09T20:13:23.822Z,5.05
2022-09-09T20:16:03.010Z,4.88
2022-09-09T20:21:04.313Z,4.85
2022-09-09T20:23:35.105Z,5.38
2022-09-09T20:26:06.285Z,4.78
2022-09-09T20:28:37.153Z,4.20
2022-09-09T20:31:10.298Z,4.40
2022-09-09T20:33:40.391Z,4.63
2022-09-09T20:36:17.245Z,4.57
2022-09-09T20:38:47.989Z,4.43
2022-09-09T20:41:20.031Z,4.60
2022-09-09T20:43:50.563Z,4.78
2022-09-09T20:46:20.879Z,4.40
2022-09-09T20:48:52.001Z,4.20
2022-09-09T20:51:22.541Z,4.60
2022-09-09T20:54:12.425Z,4.78
2022-09-09T20:56:43.718Z,5.50
2022-09-09T20:59:17.303Z,5.00
2022-09-09T21:01:48.872Z,4.70
2022-09-09T21:04:19.335Z,4.35
2022-09-09T21:06:49.497Z,4.53
2022-09-09T21:09:19.382Z,4.78
2022-09-09T21:11:49.163Z,4.13
2022-09-09T21:14:18.966Z,3.67
2022-09-09T21:16:48.717Z,4.00
2022-09-09T21:19:18.664Z,4.30
2022-09-09T21:21:49.350Z,4.00
2022-09-09T21:24:19.328Z,5.05
2022-09-09T21:26:49.179Z,3.70
2022-09-09T21:29:19.025Z,3.63
2022-09-09T21:31:49.021Z,3.80
2022-09-09T21:34:20.192Z,4.18
2022-09-09T21:36:49.917Z,5.10
2022-09-09T21:39:19.866Z,4.30
2022-09-09T21:41:50.009Z,3.97
2022-09-09T21:44:20.488Z,4.22
2022-09-09T21:46:55.094Z,4.18
2022-09-09T21:49:28.697Z,4.22
2022-09-09T21:51:59.821Z,4.20
2022-09-09T21:54:33.093Z,4.57
2022-09-09T21:57:03.165Z,5.53
2022-09-09T21:59:34.152Z,5.35
2022-09-09T22:02:04.008Z,5.30
2022-09-09T22:04:33.842Z,5.10
2022-09-09T22:07:03.697Z,5.80
2022-09-09T22:09:33.505Z,5.40
2022-09-09T22:12:03.333Z,6.00
2022-09-09T22:14:34.380Z,6.03
2022-09-09T22:17:04.293Z,5.70
2022-09-09T22:19:45.936Z,8.43
2022-09-09T22:22:16.047Z,5.85
2022-09-09T22:24:46.159Z,6.40
2022-09-09T22:27:17.397Z,6.28
2022-09-09T22:29:47.049Z,6.80
2022-09-09T22:32:17.546Z,8.93
2022-09-09T22:34:48.193Z,9.48
2022-09-09T22:37:18.152Z,10.52
2022-09-09T22:39:48.139Z,11.75
2022-09-09T22:42:19.561Z,11.80
2022-09-09T22:44:49.468Z,10.45
2022-09-09T22:47:19.283Z,12.45
2022-09-09T22:49:48.995Z,9.23
2022-09-09T22:52:18.687Z,11.02
2022-09-09T22:54:49.713Z,12.40
2022-09-09T22:57:19.446Z,12.48
2022-09-09T22:59:49.721Z,9.93
2022-09-09T23:02:22.262Z,11.63
2022-09-09T23:04:52.771Z,10.60
2022-09-09T23:07:23.438Z,10.32
2022-09-09T23:09:53.324Z,13.02
2022-09-09T23:12:23.693Z,11.60
2022-09-09T23:14:55.692Z,13.02
2022-09-09T23:17:26.428Z,12.32
2022-09-09T23:19:58.054Z,12.93
2022-09-09T23:22:28.610Z,13.52
2022-09-09T23:24:59.444Z,11.65
2022-09-09T23:27:29.163Z,12.25
2022-09-09T23:29:59.138Z,11.60
2022-09-09T23:32:29.116Z,11.98
2022-09-09T23:34:59.682Z,11.90
2022-09-09T23:37:29.476Z,11.52
2022-09-09T23:39:59.442Z,10.50
2022-09-09T23:42:29.630Z,9.27
2022-09-09T23:45:02.395Z,7.93
2022-09-09T23:47:32.338Z,8.75
2022-09-09T23:50:03.003Z,7.90
2022-09-09T23:52:33.390Z,8.32
2022-09-09T23:55:03.005Z,7.35
2022-09-09T23:57:32.858Z,6.93
